sensor_id;sensor_type;location;lat;lon;timestamp;P1;durP1;ratioP1;P2;durP2;ratioP2
42096;SDS011;27754;45.414;11.084;2022-10-31T00:01:17;26.80;;;10.65;;
42096;SDS011;27754;45.414;11.084;2022-10-31T00:03:46;24.75;;;9.75;;
42096;SDS011;27754;45.414;11.084;2022-10-31T00:06:14;19.55;;;10.77;;
42096;SDS011;27754;45.414;11.084;2022-10-31T00:08:47;23.42;;;10.23;;
42096;SDS011;27754;45.414;11.084;2022-10-31T00:11:18;24.85;;;9.75;;
42096;SDS011;27754;45.414;11.084;2022-10-31T00:13:45;20.42;;;9.63;;
42096;SDS011;27754;45.414;11.084;2022-10-31T00:16:15;24.02;;;9.88;;
42096;SDS011;27754;45.414;11.084;2022-10-31T00:18:43;21.25;;;10.40;;
42096;SDS011;27754;45.414;11.084;2022-10-31T00:21:14;22.20;;;10.70;;
42096;SDS011;27754;45.414;11.084;2022-10-31T00:23:41;19.60;;;10.35;;
42096;SDS011;27754;45.414;11.084;2022-10-31T00:26:08;22.52;;;11.18;;
42096;SDS011;27754;45.414;11.084;2022-10-31T00:28:34;22.05;;;10.65;;
42096;SDS011;27754;45.414;11.084;2022-10-31T00:31:03;25.35;;;10.98;;
42096;SDS011;27754;45.414;11.084;2022-10-31T00:33:32;26.10;;;11.07;;
42096;SDS011;27754;45.414;11.084;2022-10-31T00:36:03;27.65;;;11.05;;
42096;SDS011;27754;45.414;11.084;2022-10-31T00:38:31;21.48;;;10.68;;
42096;SDS011;27754;45.414;11.084;2022-10-31T00:40:59;19.00;;;9.70;;
42096;SDS011;27754;45.414;11.084;2022-10-31T00:43:26;19.50;;;9.77;;
42096;SDS011;27754;45.414;11.084;2022-10-31T00:45:53;19.95;;;10.43;;
42096;SDS011;27754;45.414;11.084;2022-10-31T00:48:23;21.65;;;10.05;;
42096;SDS011;27754;45.414;11.084;2022-10-31T00:50:51;21.42;;;10.02;;
42096;SDS011;27754;45.414;11.084;2022-10-31T00:53:18;24.63;;;10.98;;
42096;SDS011;27754;45.414;11.084;2022-10-31T00:55:45;17.52;;;9.90;;
42096;SDS011;27754;45.414;11.084;2022-10-31T00:58:13;21.90;;;10.25;;
42096;SDS011;27754;45.414;11.084;2022-10-31T01:00:48;22.92;;;10.00;;
42096;SDS011;27754;45.414;11.084;2022-10-31T01:03:26;19.52;;;9.30;;
42096;SDS011;27754;45.414;11.084;2022-10-31T01:06:01;23.25;;;9.32;;
42096;SDS011;27754;45.414;11.084;2022-10-31T01:08:32;21.45;;;10.20;;
42096;SDS011;27754;45.414;11.084;2022-10-31T01:11:13;23.17;;;10.65;;
42096;SDS011;27754;45.414;11.084;2022-10-31T01:13:40;19.20;;;9.40;;
42096;SDS011;27754;45.414;11.084;2022-10-31T01:16:08;17.58;;;9.15;;
42096;SDS011;27754;45.414;11.084;2022-10-31T01:18:37;16.35;;;9.73;;
42096;SDS011;27754;45.414;11.084;2022-10-31T01:21:07;16.73;;;9.48;;
42096;SDS011;27754;45.414;11.084;2022-10-31T01:23:35;20.15;;;9.60;;
42096;SDS011;27754;45.414;11.084;2022-10-31T01:28:32;14.00;;;8.45;;
42096;SDS011;27754;45.414;11.084;2022-10-31T01:31:02;18.83;;;9.10;;
42096;SDS011;27754;45.414;11.084;2022-10-31T01:33:32;26.63;;;10.38;;
42096;SDS011;27754;45.414;11.084;2022-10-31T01:35:59;21.02;;;10.05;;
42096;SDS011;27754;45.414;11.084;2022-10-31T01:38:26;21.17;;;9.70;;
42096;SDS011;27754;45.414;11.084;2022-10-31T01:40:53;22.00;;;9.40;;
42096;SDS011;27754;45.414;11.084;2022-10-31T01:43:20;20.88;;;9.38;;
42096;SDS011;27754;45.414;11.084;2022-10-31T01:45:52;21.02;;;9.50;;
42096;SDS011;27754;45.414;11.084;2022-10-31T01:48:21;20.17;;;9.80;;
42096;SDS011;27754;45.414;11.084;2022-10-31T01:50:53;22.98;;;9.50;;
42096;SDS011;27754;45.414;11.084;2022-10-31T01:53:21;20.30;;;9.80;;
42096;SDS011;27754;45.414;11.084;2022-10-31T01:55:52;20.75;;;9.88;;
42096;SDS011;27754;45.414;11.084;2022-10-31T01:58:20;25.02;;;13.02;;
42096;SDS011;27754;45.414;11.084;2022-10-31T02:00:51;18.58;;;11.30;;
42096;SDS011;27754;45.414;11.084;2022-10-31T02:03:22;21.50;;;11.50;;
42096;SDS011;27754;45.414;11.084;2022-10-31T02:05:50;21.23;;;10.27;;
42096;SDS011;27754;45.414;11.084;2022-10-31T02:08:30;24.45;;;11.25;;
42096;SDS011;27754;45.414;11.084;2022-10-31T02:11:00;31.63;;;12.70;;
42096;SDS011;27754;45.414;11.084;2022-10-31T02:13:28;27.42;;;13.80;;
42096;SDS011;27754;45.414;11.084;2022-10-31T02:15:57;28.42;;;14.88;;
42096;SDS011;27754;45.414;11.084;2022-10-31T02:18:26;27.83;;;14.82;;
42096;SDS011;27754;45.414;11.084;2022-10-31T02:23:56;36.10;;;15.88;;
42096;SDS011;27754;45.414;11.084;2022-10-31T02:38:06;31.20;;;15.20;;
42096;SDS011;27754;45.414;11.084;2022-10-31T02:44:05;23.50;;;13.68;;
42096;SDS011;27754;45.414;11.084;2022-10-31T02:47:05;27.42;;;14.35;;
42096;SDS011;27754;45.414;11.084;2022-10-31T02:49:39;27.10;;;13.77;;
42096;SDS011;27754;45.414;11.084;2022-10-31T02:52:21;27.35;;;13.02;;
42096;SDS011;27754;45.414;11.084;2022-10-31T02:54:51;23.92;;;13.05;;
42096;SDS011;27754;45.414;11.084;2022-10-31T02:57:20;25.42;;;13.45;;
42096;SDS011;27754;45.414;11.084;2022-10-31T02:59:59;29.90;;;14.98;;
42096;SDS011;27754;45.414;11.084;2022-10-31T03:05:21;28.42;;;14.02;;
42096;SDS011;27754;45.414;11.084;2022-10-31T03:07:53;30.80;;;15.77;;
42096;SDS011;27754;45.414;11.084;2022-10-31T03:16:29;29.05;;;15.00;;
42096;SDS011;27754;45.414;11.084;2022-10-31T03:19:07;37.58;;;20.80;;
42096;SDS011;27754;45.414;11.084;2022-10-31T03:21:44;33.92;;;21.25;;
42096;SDS011;27754;45.414;11.084;2022-10-31T03:24:15;37.05;;;19.67;;
42096;SDS011;27754;45.414;11.084;2022-10-31T03:26:44;40.40;;;21.02;;
42096;SDS011;27754;45.414;11.084;2022-10-31T03:29:15;38.55;;;20.40;;
42096;SDS011;27754;45.414;11.084;2022-10-31T03:31:46;39.70;;;22.88;;
42096;SDS011;27754;45.414;11.084;2022-10-31T03:34:16;38.92;;;21.35;;
42096;SDS011;27754;45.414;11.084;2022-10-31T03:36:46;44.25;;;24.35;;
42096;SDS011;27754;45.414;11.084;2022-10-31T03:39:17;40.25;;;23.63;;
42096;SDS011;27754;45.414;11.084;2022-10-31T03:41:53;45.10;;;25.15;;
42096;SDS011;27754;45.414;11.084;2022-10-31T03:44:26;38.90;;;25.05;;
42096;SDS011;27754;45.414;11.084;2022-10-31T03:46:59;37.42;;;21.85;;
42096;SDS011;27754;45.414;11.084;2022-10-31T03:49:26;37.55;;;21.15;;
42096;SDS011;27754;45.414;11.084;2022-10-31T03:51:57;36.70;;;20.98;;
42096;SDS011;27754;45.414;11.084;2022-10-31T03:54:31;37.25;;;23.10;;
42096;SDS011;27754;45.414;11.084;2022-10-31T04:00:09;37.53;;;20.55;;
42096;SDS011;27754;45.414;11.084;2022-10-31T04:02:47;26.98;;;15.40;;
42096;SDS011;27754;45.414;11.084;2022-10-31T04:05:22;29.52;;;14.98;;
42096;SDS011;27754;45.414;11.084;2022-10-31T04:07:51;24.75;;;14.32;;
42096;SDS011;27754;45.414;11.084;2022-10-31T04:10:21;27.10;;;13.90;;
42096;SDS011;27754;45.414;11.084;2022-10-31T04:13:03;25.17;;;13.52;;
42096;SDS011;27754;45.414;11.084;2022-10-31T04:15:56;24.17;;;14.55;;
42096;SDS011;27754;45.414;11.084;2022-10-31T04:18:24;26.58;;;15.23;;
42096;SDS011;27754;45.414;11.084;2022-10-31T04:20:59;25.52;;;14.90;;
42096;SDS011;27754;45.414;11.084;2022-10-31T04:23:27;33.67;;;18.13;;
42096;SDS011;27754;45.414;11.084;2022-10-31T04:25:55;37.85;;;20.67;;
42096;SDS011;27754;45.414;11.084;2022-10-31T04:28:22;42.92;;;22.85;;
42096;SDS011;27754;45.414;11.084;2022-10-31T04:30:50;41.95;;;24.10;;
42096;SDS011;27754;45.414;11.084;2022-10-31T04:33:17;46.20;;;26.58;;
42096;SDS011;27754;45.414;11.084;2022-10-31T04:35:46;48.58;;;28.20;;
42096;SDS011;27754;45.414;11.084;2022-10-31T04:38:14;57.50;;;29.38;;
42096;SDS011;27754;45.414;11.084;2022-10-31T04:40:42;50.50;;;28.92;;
42096;SDS011;27754;45.414;11.084;2022-10-31T04:43:27;48.83;;;27.30;;
42096;SDS011;27754;45.414;11.084;2022-10-31T04:45:54;46.05;;;27.80;;
42096;SDS011;27754;45.414;11.084;2022-10-31T04:48:21;50.13;;;27.30;;
42096;SDS011;27754;45.414;11.084;2022-10-31T04:50:49;47.10;;;26.13;;
42096;SDS011;27754;45.414;11.084;2022-10-31T04:53:16;42.00;;;25.77;;
42096;SDS011;27754;45.414;11.084;2022-10-31T04:56:03;43.53;;;26.23;;
42096;SDS011;27754;45.414;11.084;2022-10-31T04:58:39;47.42;;;27.40;;
42096;SDS011;27754;45.414;11.084;2022-10-31T05:01:07;42.88;;;24.70;;
42096;SDS011;27754;45.414;11.084;2022-10-31T05:03:35;48.22;;;25.98;;
42096;SDS011;27754;45.414;11.084;2022-10-31T05:06:02;43.85;;;25.25;;
42096;SDS011;27754;45.414;11.084;2022-10-31T05:08:29;53.88;;;25.50;;
42096;SDS011;27754;45.414;11.084;2022-10-31T05:10:59;41.22;;;23.88;;
42096;SDS011;27754;45.414;11.084;2022-10-31T05:13:30;45.15;;;25.15;;
42096;SDS011;27754;45.414;11.084;2022-10-31T05:16:32;44.65;;;24.30;;
42096;SDS011;27754;45.414;11.084;2022-10-31T05:19:29;43.30;;;24.92;;
42096;SDS011;27754;45.414;11.084;2022-10-31T05:22:14;43.15;;;26.30;;
42096;SDS011;27754;45.414;11.084;2022-10-31T05:24:41;42.65;;;25.33;;
42096;SDS011;27754;45.414;11.084;2022-10-31T05:27:09;45.30;;;25.75;;
42096;SDS011;27754;45.414;11.084;2022-10-31T05:29:36;45.08;;;26.92;;
42096;SDS011;27754;45.414;11.084;2022-10-31T05:32:03;48.63;;;25.80;;
42096;SDS011;27754;45.414;11.084;2022-10-31T05:35:02;46.30;;;26.48;;
42096;SDS011;27754;45.414;11.084;2022-10-31T05:37:49;47.72;;;26.88;;
42096;SDS011;27754;45.414;11.084;2022-10-31T05:40:16;46.63;;;25.67;;
42096;SDS011;27754;45.414;11.084;2022-10-31T05:42:45;45.03;;;25.95;;
42096;SDS011;27754;45.414;11.084;2022-10-31T05:45:16;49.33;;;26.58;;
42096;SDS011;27754;45.414;11.084;2022-10-31T05:47:51;38.83;;;24.75;;
42096;SDS011;27754;45.414;11.084;2022-10-31T05:50:58;44.78;;;25.50;;
42096;SDS011;27754;45.414;11.084;2022-10-31T05:53:25;44.58;;;25.73;;
42096;SDS011;27754;45.414;11.084;2022-10-31T05:55:52;51.17;;;29.05;;
42096;SDS011;27754;45.414;11.084;2022-10-31T05:58:21;67.50;;;30.13;;
42096;SDS011;27754;45.414;11.084;2022-10-31T06:00:55;80.57;;;31.30;;
42096;SDS011;27754;45.414;11.084;2022-10-31T06:03:22;94.15;;;33.80;;
42096;SDS011;27754;45.414;11.084;2022-10-31T06:05:53;90.18;;;32.90;;
42096;SDS011;27754;45.414;11.084;2022-10-31T06:08:24;62.25;;;30.23;;
42096;SDS011;27754;45.414;11.084;2022-10-31T06:10:53;51.95;;;27.02;;
42096;SDS011;27754;45.414;11.084;2022-10-31T06:13:40;56.67;;;27.35;;
42096;SDS011;27754;45.414;11.084;2022-10-31T06:16:15;53.90;;;27.05;;
42096;SDS011;27754;45.414;11.084;2022-10-31T06:18:45;46.72;;;27.25;;
42096;SDS011;27754;45.414;11.084;2022-10-31T06:21:12;48.63;;;27.42;;
42096;SDS011;27754;45.414;11.084;2022-10-31T06:23:45;47.00;;;25.48;;
42096;SDS011;27754;45.414;11.084;2022-10-31T06:26:33;44.90;;;26.10;;
42096;SDS011;27754;45.414;11.084;2022-10-31T06:29:01;51.72;;;25.65;;
42096;SDS011;27754;45.414;11.084;2022-10-31T06:31:53;50.85;;;26.35;;
42096;SDS011;27754;45.414;11.084;2022-10-31T06:34:20;61.15;;;26.52;;
42096;SDS011;27754;45.414;11.084;2022-10-31T06:36:47;54.58;;;26.63;;
42096;SDS011;27754;45.414;11.084;2022-10-31T06:39:17;59.90;;;27.23;;
42096;SDS011;27754;45.414;11.084;2022-10-31T06:41:46;53.22;;;26.42;;
42096;SDS011;27754;45.414;11.084;2022-10-31T06:44:15;50.35;;;25.05;;
42096;SDS011;27754;45.414;11.084;2022-10-31T06:46:51;42.47;;;22.85;;
42096;SDS011;27754;45.414;11.084;2022-10-31T06:49:44;44.00;;;23.02;;
42096;SDS011;27754;45.414;11.084;2022-10-31T06:52:14;47.97;;;22.65;;
42096;SDS011;27754;45.414;11.084;2022-10-31T06:54:41;41.60;;;23.17;;
42096;SDS011;27754;45.414;11.084;2022-10-31T06:57:08;44.05;;;22.73;;
42096;SDS011;27754;45.414;11.084;2022-10-31T06:59:36;38.58;;;21.10;;
42096;SDS011;27754;45.414;11.084;2022-10-31T07:02:10;40.58;;;21.02;;
42096;SDS011;27754;45.414;11.084;2022-10-31T07:04:39;42.05;;;22.40;;
42096;SDS011;27754;45.414;11.084;2022-10-31T07:07:06;49.08;;;23.42;;
42096;SDS011;27754;45.414;11.084;2022-10-31T07:09:35;61.25;;;24.77;;
42096;SDS011;27754;45.414;11.084;2022-10-31T07:12:03;52.47;;;23.80;;
42096;SDS011;27754;45.414;11.084;2022-10-31T07:14:34;45.85;;;20.55;;
42096;SDS011;27754;45.414;11.084;2022-10-31T07:17:01;39.60;;;20.08;;
42096;SDS011;27754;45.414;11.084;2022-10-31T07:19:38;39.55;;;18.17;;
42096;SDS011;27754;45.414;11.084;2022-10-31T07:22:05;31.58;;;16.33;;
42096;SDS011;27754;45.414;11.084;2022-10-31T07:24:33;43.30;;;16.42;;
42096;SDS011;27754;45.414;11.084;2022-10-31T07:27:19;26.33;;;13.98;;
42096;SDS011;27754;45.414;11.084;2022-10-31T07:29:47;32.40;;;15.43;;
42096;SDS011;27754;45.414;11.084;2022-10-31T07:32:15;36.75;;;16.13;;
42096;SDS011;27754;45.414;11.084;2022-10-31T07:34:50;37.53;;;15.90;;
42096;SDS011;27754;45.414;11.084;2022-10-31T07:37:22;27.10;;;13.07;;
42096;SDS011;27754;45.414;11.084;2022-10-31T07:39:51;35.00;;;13.48;;
42096;SDS011;27754;45.414;11.084;2022-10-31T07:42:17;33.47;;;14.88;;
42096;SDS011;27754;45.414;11.084;2022-10-31T07:44:45;33.60;;;15.93;;
42096;SDS011;27754;45.414;11.084;2022-10-31T07:47:38;31.52;;;18.23;;
42096;SDS011;27754;45.414;11.084;2022-10-31T07:50:29;35.08;;;19.23;;
42096;SDS011;27754;45.414;11.084;2022-10-31T07:53:22;42.83;;;22.75;;
42096;SDS011;27754;45.414;11.084;2022-10-31T07:55:57;43.00;;;22.20;;
42096;SDS011;27754;45.414;11.084;2022-10-31T07:58:28;35.83;;;21.20;;
42096;SDS011;27754;45.414;11.084;2022-10-31T08:00:57;36.60;;;22.10;;
42096;SDS011;27754;45.414;11.084;2022-10-31T08:06:08;44.10;;;22.33;;
42096;SDS011;27754;45.414;11.084;2022-10-31T08:08:41;44.33;;;22.27;;
42096;SDS011;27754;45.414;11.084;2022-10-31T08:11:08;40.08;;;21.83;;
42096;SDS011;27754;45.414;11.084;2022-10-31T08:13:36;34.45;;;21.20;;
42096;SDS011;27754;45.414;11.084;2022-10-31T08:16:04;38.47;;;20.77;;
42096;SDS011;27754;45.414;11.084;2022-10-31T08:18:41;38.33;;;22.58;;
42096;SDS011;27754;45.414;11.084;2022-10-31T08:21:12;36.05;;;22.38;;
42096;SDS011;27754;45.414;11.084;2022-10-31T08:23:39;38.95;;;21.08;;
42096;SDS011;27754;45.414;11.084;2022-10-31T08:26:07;36.97;;;20.95;;
42096;SDS011;27754;45.414;11.084;2022-10-31T08:28:33;36.95;;;22.13;;
42096;SDS011;27754;45.414;11.084;2022-10-31T08:31:01;38.15;;;22.27;;
42096;SDS011;27754;45.414;11.084;2022-10-31T08:33:52;43.97;;;23.13;;
42096;SDS011;27754;45.414;11.084;2022-10-31T08:36:38;44.00;;;21.17;;
42096;SDS011;27754;45.414;11.084;2022-10-31T08:39:12;39.78;;;21.88;;
42096;SDS011;27754;45.414;11.084;2022-10-31T08:41:39;41.92;;;22.33;;
42096;SDS011;27754;45.414;11.084;2022-10-31T08:44:10;39.33;;;21.70;;
42096;SDS011;27754;45.414;11.084;2022-10-31T08:46:37;41.33;;;22.98;;
42096;SDS011;27754;45.414;11.084;2022-10-31T08:49:04;35.58;;;21.27;;
42096;SDS011;27754;45.414;11.084;2022-10-31T08:51:31;41.00;;;21.48;;
42096;SDS011;27754;45.414;11.084;2022-10-31T08:53:58;39.50;;;22.75;;
42096;SDS011;27754;45.414;11.084;2022-10-31T08:56:43;47.78;;;23.90;;
42096;SDS011;27754;45.414;11.084;2022-10-31T08:59:25;46.30;;;24.40;;
42096;SDS011;27754;45.414;11.084;2022-10-31T09:02:18;41.35;;;24.83;;
42096;SDS011;27754;45.414;11.084;2022-10-31T09:04:47;40.90;;;23.02;;
42096;SDS011;27754;45.414;11.084;2022-10-31T09:07:15;45.97;;;26.60;;
42096;SDS011;27754;45.414;11.084;2022-10-31T09:09:47;41.33;;;25.35;;
42096;SDS011;27754;45.414;11.084;2022-10-31T09:12:14;47.53;;;25.98;;
42096;SDS011;27754;45.414;11.084;2022-10-31T09:15:00;41.55;;;25.50;;
42096;SDS011;27754;45.414;11.084;2022-10-31T09:17:35;51.00;;;26.83;;
42096;SDS011;27754;45.414;11.084;2022-10-31T09:20:25;44.17;;;25.45;;
42096;SDS011;27754;45.414;11.084;2022-10-31T09:23:06;44.58;;;26.70;;
42096;SDS011;27754;45.414;11.084;2022-10-31T09:25:38;45.10;;;27.38;;
42096;SDS011;27754;45.414;11.084;2022-10-31T09:28:44;48.38;;;27.58;;
42096;SDS011;27754;45.414;11.084;2022-10-31T09:31:14;52.55;;;26.58;;
42096;SDS011;27754;45.414;11.084;2022-10-31T09:33:50;45.13;;;26.17;;
42096;SDS011;27754;45.414;11.084;2022-10-31T09:36:34;45.58;;;26.13;;
42096;SDS011;27754;45.414;11.084;2022-10-31T09:39:04;45.40;;;25.58;;
42096;SDS011;27754;45.414;11.084;2022-10-31T09:41:42;44.85;;;26.55;;
42096;SDS011;27754;45.414;11.084;2022-10-31T09:44:43;41.22;;;25.67;;
42096;SDS011;27754;45.414;11.084;2022-10-31T09:53:29;40.08;;;27.58;;
42096;SDS011;27754;45.414;11.084;2022-10-31T09:55:58;47.53;;;27.70;;
42096;SDS011;27754;45.414;11.084;2022-10-31T09:58:27;41.65;;;27.75;;
42096;SDS011;27754;45.414;11.084;2022-10-31T10:01:00;50.13;;;29.45;;
42096;SDS011;27754;45.414;11.084;2022-10-31T10:03:34;52.40;;;28.77;;
42096;SDS011;27754;45.414;11.084;2022-10-31T10:06:28;58.58;;;32.92;;
42096;SDS011;27754;45.414;11.084;2022-10-31T10:09:19;46.47;;;29.52;;
42096;SDS011;27754;45.414;11.084;2022-10-31T10:15:45;50.42;;;30.73;;
42096;SDS011;27754;45.414;11.084;2022-10-31T10:18:41;55.28;;;29.92;;
42096;SDS011;27754;45.414;11.084;2022-10-31T10:27:33;49.28;;;28.48;;
42096;SDS011;27754;45.414;11.084;2022-10-31T10:30:17;54.05;;;27.75;;
42096;SDS011;27754;45.414;11.084;2022-10-31T10:35:24;46.53;;;26.70;;
42096;SDS011;27754;45.414;11.084;2022-10-31T10:38:16;49.17;;;28.02;;
42096;SDS011;27754;45.414;11.084;2022-10-31T10:40:51;45.33;;;27.60;;
42096;SDS011;27754;45.414;11.084;2022-10-31T10:45:55;45.35;;;26.92;;
42096;SDS011;27754;45.414;11.084;2022-10-31T10:48:59;43.53;;;24.60;;
42096;SDS011;27754;45.414;11.084;2022-10-31T10:57:42;48.80;;;28.48;;
42096;SDS011;27754;45.414;11.084;2022-10-31T11:02:49;46.38;;;28.40;;
42096;SDS011;27754;45.414;11.084;2022-10-31T11:05:22;43.15;;;27.13;;
42096;SDS011;27754;45.414;11.084;2022-10-31T11:08:08;43.72;;;27.55;;
42096;SDS011;27754;45.414;11.084;2022-10-31T11:10:35;41.90;;;27.60;;
42096;SDS011;27754;45.414;11.084;2022-10-31T11:15:54;42.70;;;26.42;;
42096;SDS011;27754;45.414;11.084;2022-10-31T11:18:31;40.13;;;27.80;;
42096;SDS011;27754;45.414;11.084;2022-10-31T11:21:01;43.92;;;28.90;;
42096;SDS011;27754;45.414;11.084;2022-10-31T11:23:30;42.38;;;28.52;;
42096;SDS011;27754;45.414;11.084;2022-10-31T11:26:00;44.47;;;27.80;;
42096;SDS011;27754;45.414;11.084;2022-10-31T11:28:31;47.35;;;29.52;;
42096;SDS011;27754;45.414;11.084;2022-10-31T11:31:05;47.88;;;29.80;;
42096;SDS011;27754;45.414;11.084;2022-10-31T11:33:35;51.40;;;30.25;;
42096;SDS011;27754;45.414;11.084;2022-10-31T11:36:16;53.85;;;30.38;;
42096;SDS011;27754;45.414;11.084;2022-10-31T11:38:47;50.33;;;31.17;;
42096;SDS011;27754;45.414;11.084;2022-10-31T11:41:16;51.35;;;31.02;;
42096;SDS011;27754;45.414;11.084;2022-10-31T11:43:55;44.20;;;29.38;;
42096;SDS011;27754;45.414;11.084;2022-10-31T11:46:37;51.80;;;29.45;;
42096;SDS011;27754;45.414;11.084;2022-10-31T11:49:12;45.47;;;31.70;;
42096;SDS011;27754;45.414;11.084;2022-10-31T11:51:50;51.13;;;32.20;;
42096;SDS011;27754;45.414;11.084;2022-10-31T11:54:21;52.83;;;30.50;;
42096;SDS011;27754;45.414;11.084;2022-10-31T11:56:51;45.65;;;28.77;;
42096;SDS011;27754;45.414;11.084;2022-10-31T11:59:28;50.17;;;29.00;;
42096;SDS011;27754;45.414;11.084;2022-10-31T12:01:59;40.15;;;27.02;;
42096;SDS011;27754;45.414;11.084;2022-10-31T12:07:04;48.28;;;27.02;;
42096;SDS011;27754;45.414;11.084;2022-10-31T12:09:35;46.63;;;27.83;;
42096;SDS011;27754;45.414;11.084;2022-10-31T12:12:11;49.15;;;28.55;;
42096;SDS011;27754;45.414;11.084;2022-10-31T12:15:21;50.60;;;29.83;;
42096;SDS011;27754;45.414;11.084;2022-10-31T12:18:17;45.30;;;28.67;;
42096;SDS011;27754;45.414;11.084;2022-10-31T12:26:13;45.53;;;28.23;;
42096;SDS011;27754;45.414;11.084;2022-10-31T12:29:09;41.08;;;27.73;;
42096;SDS011;27754;45.414;11.084;2022-10-31T12:32:00;43.78;;;27.08;;
42096;SDS011;27754;45.414;11.084;2022-10-31T12:43:46;40.20;;;25.55;;
42096;SDS011;27754;45.414;11.084;2022-10-31T12:46:36;40.38;;;25.30;;
42096;SDS011;27754;45.414;11.084;2022-10-31T12:49:33;45.45;;;25.77;;
42096;SDS011;27754;45.414;11.084;2022-10-31T12:54:56;36.38;;;23.95;;
42096;SDS011;27754;45.414;11.084;2022-10-31T12:57:43;39.40;;;24.55;;
42096;SDS011;27754;45.414;11.084;2022-10-31T13:00:17;39.75;;;24.45;;
42096;SDS011;27754;45.414;11.084;2022-10-31T13:02:52;40.53;;;23.98;;
42096;SDS011;27754;45.414;11.084;2022-10-31T13:05:37;40.92;;;23.20;;
42096;SDS011;27754;45.414;11.084;2022-10-31T13:10:41;38.05;;;22.67;;
42096;SDS011;27754;45.414;11.084;2022-10-31T13:13:20;40.85;;;22.98;;
42096;SDS011;27754;45.414;11.084;2022-10-31T13:16:01;39.15;;;21.92;;
42096;SDS011;27754;45.414;11.084;2022-10-31T13:21:18;35.05;;;21.98;;
42096;SDS011;27754;45.414;11.084;2022-10-31T13:23:49;37.67;;;21.95;;
42096;SDS011;27754;45.414;11.084;2022-10-31T13:29:15;33.15;;;20.80;;
42096;SDS011;27754;45.414;11.084;2022-10-31T13:31:56;33.60;;;21.63;;
42096;SDS011;27754;45.414;11.084;2022-10-31T13:34:29;33.25;;;19.15;;
42096;SDS011;27754;45.414;11.084;2022-10-31T13:42:48;34.03;;;19.05;;
42096;SDS011;27754;45.414;11.084;2022-10-31T13:45:21;26.73;;;18.77;;
42096;SDS011;27754;45.414;11.084;2022-10-31T13:47:56;30.98;;;19.63;;
42096;SDS011;27754;45.414;11.084;2022-10-31T13:50:27;31.08;;;18.45;;
42096;SDS011;27754;45.414;11.084;2022-10-31T13:53:10;27.75;;;18.38;;
42096;SDS011;27754;45.414;11.084;2022-10-31T13:55:42;28.75;;;18.67;;
42096;SDS011;27754;45.414;11.084;2022-10-31T13:58:23;27.52;;;17.23;;
42096;SDS011;27754;45.414;11.084;2022-10-31T14:03:25;32.63;;;18.33;;
42096;SDS011;27754;45.414;11.084;2022-10-31T14:06:14;32.70;;;19.58;;
42096;SDS011;27754;45.414;11.084;2022-10-31T14:08:47;30.35;;;20.08;;
42096;SDS011;27754;45.414;11.084;2022-10-31T14:11:24;32.30;;;20.30;;
42096;SDS011;27754;45.414;11.084;2022-10-31T14:14:01;33.28;;;20.25;;
42096;SDS011;27754;45.414;11.084;2022-10-31T14:16:29;33.40;;;19.23;;
42096;SDS011;27754;45.414;11.084;2022-10-31T14:19:08;33.65;;;20.05;;
42096;SDS011;27754;45.414;11.084;2022-10-31T14:21:48;26.98;;;20.45;;
42096;SDS011;27754;45.414;11.084;2022-10-31T14:26:55;30.60;;;19.58;;
42096;SDS011;27754;45.414;11.084;2022-10-31T14:29:31;36.20;;;20.42;;
42096;SDS011;27754;45.414;11.084;2022-10-31T14:34:34;34.47;;;19.58;;
42096;SDS011;27754;45.414;11.084;2022-10-31T14:51:03;35.33;;;20.42;;
42096;SDS011;27754;45.414;11.084;2022-10-31T14:53:44;34.45;;;20.75;;
42096;SDS011;27754;45.414;11.084;2022-10-31T14:56:34;30.73;;;19.25;;
42096;SDS011;27754;45.414;11.084;2022-10-31T14:59:07;33.05;;;19.67;;
42096;SDS011;27754;45.414;11.084;2022-10-31T15:01:38;36.00;;;21.33;;
42096;SDS011;27754;45.414;11.084;2022-10-31T15:04:23;34.63;;;20.35;;
42096;SDS011;27754;45.414;11.084;2022-10-31T15:07:00;28.77;;;18.15;;
42096;SDS011;27754;45.414;11.084;2022-10-31T15:09:57;35.13;;;19.65;;
42096;SDS011;27754;45.414;11.084;2022-10-31T15:12:26;33.25;;;19.45;;
42096;SDS011;27754;45.414;11.084;2022-10-31T15:14:55;32.35;;;18.70;;
42096;SDS011;27754;45.414;11.084;2022-10-31T15:17:23;26.83;;;18.23;;
42096;SDS011;27754;45.414;11.084;2022-10-31T15:19:51;33.25;;;20.50;;
42096;SDS011;27754;45.414;11.084;2022-10-31T15:22:19;25.70;;;17.85;;
42096;SDS011;27754;45.414;11.084;2022-10-31T15:24:49;33.28;;;19.05;;
42096;SDS011;27754;45.414;11.084;2022-10-31T15:27:22;35.40;;;19.50;;
42096;SDS011;27754;45.414;11.084;2022-10-31T15:29:54;27.15;;;18.00;;
42096;SDS011;27754;45.414;11.084;2022-10-31T15:32:26;32.38;;;19.55;;
42096;SDS011;27754;45.414;11.084;2022-10-31T15:34:54;31.65;;;18.83;;
42096;SDS011;27754;45.414;11.084;2022-10-31T15:37:24;36.70;;;19.45;;
42096;SDS011;27754;45.414;11.084;2022-10-31T15:39:52;34.65;;;18.95;;
42096;SDS011;27754;45.414;11.084;2022-10-31T15:42:27;32.83;;;18.42;;
42096;SDS011;27754;45.414;11.084;2022-10-31T15:47:37;32.17;;;17.17;;
42096;SDS011;27754;45.414;11.084;2022-10-31T15:50:06;27.67;;;17.27;;
42096;SDS011;27754;45.414;11.084;2022-10-31T15:52:46;26.15;;;17.70;;
42096;SDS011;27754;45.414;11.084;2022-10-31T15:55:19;33.53;;;18.42;;
42096;SDS011;27754;45.414;11.084;2022-10-31T15:57:49;31.63;;;18.02;;
42096;SDS011;27754;45.414;11.084;2022-10-31T16:00:27;44.55;;;20.30;;
42096;SDS011;27754;45.414;11.084;2022-10-31T16:08:24;58.13;;;24.08;;
42096;SDS011;27754;45.414;11.084;2022-10-31T16:11:13;50.55;;;24.55;;
42096;SDS011;27754;45.414;11.084;2022-10-31T16:14:06;33.08;;;21.33;;
42096;SDS011;27754;45.414;11.084;2022-10-31T16:16:51;44.55;;;21.75;;
42096;SDS011;27754;45.414;11.084;2022-10-31T16:19:24;42.03;;;21.63;;
42096;SDS011;27754;45.414;11.084;2022-10-31T16:22:05;42.90;;;22.38;;
42096;SDS011;27754;45.414;11.084;2022-10-31T16:24:37;43.85;;;22.23;;
42096;SDS011;27754;45.414;11.084;2022-10-31T16:27:18;42.17;;;22.50;;
42096;SDS011;27754;45.414;11.084;2022-10-31T16:29:53;39.50;;;21.55;;
42096;SDS011;27754;45.414;11.084;2022-10-31T16:32:26;40.90;;;21.20;;
42096;SDS011;27754;45.414;11.084;2022-10-31T16:35:24;36.80;;;21.30;;
42096;SDS011;27754;45.414;11.084;2022-10-31T16:37:58;35.00;;;22.42;;
42096;SDS011;27754;45.414;11.084;2022-10-31T16:40:25;41.70;;;22.02;;
42096;SDS011;27754;45.414;11.084;2022-10-31T16:42:52;46.80;;;21.67;;
42096;SDS011;27754;45.414;11.084;2022-10-31T16:45:23;36.47;;;21.67;;
42096;SDS011;27754;45.414;11.084;2022-10-31T16:47:53;40.25;;;19.70;;
42096;SDS011;27754;45.414;11.084;2022-10-31T16:50:28;46.72;;;20.48;;
42096;SDS011;27754;45.414;11.084;2022-10-31T16:52:56;37.50;;;21.63;;
42096;SDS011;27754;45.414;11.084;2022-10-31T16:55:47;54.67;;;23.27;;
42096;SDS011;27754;45.414;11.084;2022-10-31T16:58:23;38.75;;;20.70;;
42096;SDS011;27754;45.414;11.084;2022-10-31T17:00:56;43.92;;;22.85;;